ETH339A HUEN-HAAB
Flight info
| Callsign | ETH339A |
|---|---|
| Flight time | 1h 38m |
| Altitude | 37000 |
| Route | IMVIP2B IMVIP UL432 EKBUL EKBUL1A |
| Aircraft | B738/M-SDE2E3FGHIRWXY/LB1 |
Departure
| Time | 2026-04-24 21:54 |
|---|---|
| Airport | Entebbe International Airport (HUEN) |
Arrival
| Time | 2026-04-24 23:32 |
|---|---|
| Airport | Addis Ababa Bole International Airport (HAAB) |
| Time | Latitude | Longitude | Altitude | Speed | Heading |
|---|---|---|---|---|---|
| 2026-04-24 21:27 | 0.04435 | 32.44180 | 3782 ft | 0 kts | 81° |
| 2026-04-24 21:46 | 0.04433 | 32.44171 | 3782 ft | 4 kts | 108° |
| 2026-04-24 21:46 | 0.04447 | 32.44155 | 3782 ft | 4 kts | 118° |
| 2026-04-24 21:47 | 0.04452 | 32.44136 | 3783 ft | 4 kts | 83° |
| 2026-04-24 21:47 | 0.04443 | 32.44118 | 3779 ft | 4 kts | 17° |
| 2026-04-24 21:47 | 0.04416 | 32.44116 | 3784 ft | 3 kts | 353° |
| 2026-04-24 21:47 | 0.04409 | 32.44117 | 3782 ft | 0 kts | 353° |
| 2026-04-24 21:49 | 0.04411 | 32.44117 | 3781 ft | 3 kts | 353° |
| 2026-04-24 21:49 | 0.04453 | 32.44112 | 3779 ft | 7 kts | 353° |
| 2026-04-24 21:50 | 0.04498 | 32.44106 | 3782 ft | 6 kts | 353° |
| 2026-04-24 21:50 | 0.04545 | 32.44100 | 3781 ft | 8 kts | 353° |
| 2026-04-24 21:50 | 0.04622 | 32.44090 | 3783 ft | 14 kts | 353° |
| 2026-04-24 21:50 | 0.04726 | 32.44075 | 3779 ft | 15 kts | 351° |
| 2026-04-24 21:51 | 0.04827 | 32.44059 | 3783 ft | 14 kts | 348° |
| 2026-04-24 21:51 | 0.04914 | 32.44011 | 3780 ft | 14 kts | 347° |
| 2026-04-24 21:51 | 0.05008 | 32.43997 | 3775 ft | 13 kts | 352° |
| 2026-04-24 21:51 | 0.05099 | 32.43984 | 3778 ft | 13 kts | 351° |
| 2026-04-24 21:52 | 0.05186 | 32.43970 | 3777 ft | 13 kts | 351° |
| 2026-04-24 21:52 | 0.05270 | 32.43952 | 3782 ft | 12 kts | 338° |
| 2026-04-24 21:52 | 0.05331 | 32.43896 | 3785 ft | 12 kts | 308° |
| 2026-04-24 21:52 | 0.05376 | 32.43827 | 3791 ft | 12 kts | 302° |
| 2026-04-24 21:53 | 0.05418 | 32.43759 | 3785 ft | 11 kts | 302° |
| 2026-04-24 21:53 | 0.05469 | 32.43701 | 3787 ft | 11 kts | 319° |
| 2026-04-24 21:53 | 0.05472 | 32.43637 | 3789 ft | 11 kts | 212° |
| 2026-04-24 21:53 | 0.05382 | 32.43647 | 3788 ft | 32 kts | 172° |
| 2026-04-24 21:54 | 0.04889 | 32.43713 | 3777 ft | 109 kts | 172° |
| 2026-04-24 21:54 | 0.03917 | 32.43853 | 3795 ft | 170 kts | 171° |
| 2026-04-24 21:54 | 0.02739 | 32.44022 | 4613 ft | 167 kts | 171° |
| 2026-04-24 21:54 | 0.01611 | 32.44186 | 5525 ft | 162 kts | 172° |
| 2026-04-24 21:55 | 0.00421 | 32.44352 | 5980 ft | 186 kts | 172° |
| 2026-04-24 21:55 | -0.00956 | 32.44543 | 6198 ft | 211 kts | 172° |
| 2026-04-24 21:55 | -0.02490 | 32.44755 | 6380 ft | 234 kts | 172° |
| 2026-04-24 21:55 | -0.04166 | 32.44985 | 6592 ft | 255 kts | 172° |
| 2026-04-24 21:56 | -0.06002 | 32.45236 | 6935 ft | 273 kts | 172° |
| 2026-04-24 21:56 | -0.07910 | 32.45496 | 7608 ft | 279 kts | 171° |
| 2026-04-24 21:56 | -0.09834 | 32.45783 | 8329 ft | 282 kts | 165° |
| 2026-04-24 21:56 | -0.11583 | 32.46667 | 9039 ft | 286 kts | 137° |
| 2026-04-24 21:57 | -0.12750 | 32.48262 | 9786 ft | 288 kts | 111° |
| 2026-04-24 21:57 | -0.13109 | 32.50225 | 10392 ft | 295 kts | 88° |
| 2026-04-24 21:57 | -0.12676 | 32.52302 | 10581 ft | 318 kts | 71° |
| 2026-04-24 21:57 | -0.11864 | 32.54439 | 10740 ft | 340 kts | 68° |
| 2026-04-24 21:58 | -0.10951 | 32.56678 | 11006 ft | 353 kts | 68° |
| 2026-04-24 21:58 | -0.10047 | 32.58928 | 11010 ft | 355 kts | 69° |
| 2026-04-24 21:58 | -0.09141 | 32.61255 | 11017 ft | 355 kts | 69° |
| 2026-04-24 21:58 | -0.08257 | 32.63561 | 11009 ft | 355 kts | 69° |
| 2026-04-24 21:59 | -0.07268 | 32.65772 | 10998 ft | 355 kts | 57° |
| 2026-04-24 21:59 | -0.05580 | 32.67565 | 11013 ft | 356 kts | 36° |
| 2026-04-24 21:59 | -0.03340 | 32.68638 | 11128 ft | 363 kts | 16° |
| 2026-04-24 21:59 | -0.00831 | 32.68923 | 11790 ft | 366 kts | 357° |
| 2026-04-24 22:00 | 0.01704 | 32.68636 | 12539 ft | 367 kts | 353° |
| 2026-04-24 22:00 | 0.04239 | 32.68253 | 13172 ft | 371 kts | 352° |
| 2026-04-24 22:00 | 0.06798 | 32.67854 | 13780 ft | 374 kts | 352° |
| 2026-04-24 22:00 | 0.09384 | 32.67463 | 14337 ft | 377 kts | 353° |
| 2026-04-24 22:01 | 0.11990 | 32.67087 | 14927 ft | 379 kts | 353° |
| 2026-04-24 22:01 | 0.14610 | 32.66721 | 15466 ft | 382 kts | 353° |
| 2026-04-24 22:01 | 0.17248 | 32.66355 | 15987 ft | 385 kts | 353° |
| 2026-04-24 22:01 | 0.19910 | 32.65987 | 16546 ft | 387 kts | 353° |
| 2026-04-24 22:02 | 0.22589 | 32.65616 | 17075 ft | 390 kts | 353° |
| 2026-04-24 22:02 | 0.25288 | 32.65241 | 17602 ft | 393 kts | 353° |
| 2026-04-24 22:02 | 0.28005 | 32.64864 | 18097 ft | 396 kts | 353° |
| 2026-04-24 22:02 | 0.30748 | 32.64759 | 18515 ft | 397 kts | 9° |
| 2026-04-24 22:03 | 0.33383 | 32.65566 | 18932 ft | 398 kts | 27° |
| 2026-04-24 22:03 | 0.35660 | 32.67128 | 19336 ft | 399 kts | 45° |
| 2026-04-24 22:03 | 0.37433 | 32.69269 | 19747 ft | 402 kts | 53° |
| 2026-04-24 22:03 | 0.39071 | 32.71546 | 20122 ft | 405 kts | 55° |
| 2026-04-24 22:04 | 0.40691 | 32.73860 | 20491 ft | 408 kts | 55° |
| 2026-04-24 22:04 | 0.42321 | 32.76191 | 20865 ft | 411 kts | 55° |
| 2026-04-24 22:04 | 0.43973 | 32.78531 | 21233 ft | 413 kts | 54° |
| 2026-04-24 22:04 | 0.45644 | 32.80877 | 21607 ft | 416 kts | 54° |
| 2026-04-24 22:05 | 0.47332 | 32.83232 | 21951 ft | 418 kts | 54° |
| 2026-04-24 22:05 | 0.49039 | 32.85603 | 22292 ft | 421 kts | 54° |
| 2026-04-24 22:05 | 0.50753 | 32.87981 | 22630 ft | 423 kts | 54° |
| 2026-04-24 22:05 | 0.52481 | 32.90378 | 22968 ft | 426 kts | 54° |
| 2026-04-24 22:06 | 0.54214 | 32.92781 | 23290 ft | 428 kts | 54° |
| 2026-04-24 22:06 | 0.55961 | 32.95205 | 23604 ft | 430 kts | 54° |
| 2026-04-24 22:06 | 0.57712 | 32.97634 | 23864 ft | 432 kts | 54° |
| 2026-04-24 22:06 | 0.59470 | 33.00075 | 24133 ft | 434 kts | 54° |
| 2026-04-24 22:07 | 0.61237 | 33.02527 | 24397 ft | 435 kts | 54° |
| 2026-04-24 22:07 | 0.63011 | 33.04988 | 24652 ft | 437 kts | 54° |
| 2026-04-24 22:07 | 0.64897 | 33.07366 | 24891 ft | 439 kts | 45° |
| 2026-04-24 22:07 | 0.67159 | 33.09425 | 25150 ft | 441 kts | 41° |
| 2026-04-24 22:08 | 0.69517 | 33.11394 | 25407 ft | 442 kts | 40° |
| 2026-04-24 22:08 | 0.71887 | 33.13361 | 25644 ft | 444 kts | 40° |
| 2026-04-24 22:08 | 0.74251 | 33.15358 | 25874 ft | 446 kts | 41° |
| 2026-04-24 22:08 | 0.76603 | 33.17386 | 26099 ft | 448 kts | 41° |
| 2026-04-24 22:09 | 0.78954 | 33.19434 | 26332 ft | 449 kts | 41° |
| 2026-04-24 22:09 | 0.81311 | 33.21497 | 26562 ft | 451 kts | 42° |
| 2026-04-24 22:09 | 0.83563 | 33.23627 | 26780 ft | 453 kts | 45° |
| 2026-04-24 22:09 | 0.85777 | 33.25870 | 26992 ft | 454 kts | 46° |
| 2026-04-24 22:10 | 0.87969 | 33.28151 | 27206 ft | 456 kts | 46° |
| 2026-04-24 22:10 | 0.90163 | 33.30445 | 27410 ft | 457 kts | 46° |
| 2026-04-24 22:10 | 0.92368 | 33.32743 | 27600 ft | 459 kts | 46° |
| 2026-04-24 22:10 | 0.94590 | 33.35044 | 27809 ft | 461 kts | 46° |
| 2026-04-24 22:11 | 0.96827 | 33.37346 | 28011 ft | 462 kts | 45° |
| 2026-04-24 22:11 | 0.99075 | 33.39649 | 28217 ft | 463 kts | 45° |
| 2026-04-24 22:11 | 1.01329 | 33.41952 | 28402 ft | 465 kts | 45° |
| 2026-04-24 22:11 | 1.03597 | 33.44265 | 28565 ft | 467 kts | 45° |
| 2026-04-24 22:12 | 1.05872 | 33.46587 | 28737 ft | 468 kts | 45° |
| 2026-04-24 22:12 | 1.08152 | 33.48915 | 28921 ft | 470 kts | 45° |
| 2026-04-24 22:12 | 1.10441 | 33.51253 | 29093 ft | 471 kts | 45° |
| 2026-04-24 22:12 | 1.12739 | 33.53601 | 29252 ft | 473 kts | 45° |
| 2026-04-24 22:13 | 1.15038 | 33.55950 | 29409 ft | 474 kts | 45° |
| 2026-04-24 22:13 | 1.17351 | 33.58312 | 29573 ft | 476 kts | 45° |
| 2026-04-24 22:13 | 1.19664 | 33.60676 | 29729 ft | 477 kts | 45° |
| 2026-04-24 22:13 | 1.21988 | 33.63050 | 29877 ft | 478 kts | 45° |
| 2026-04-24 22:14 | 1.24316 | 33.65428 | 30013 ft | 480 kts | 45° |
| 2026-04-24 22:14 | 1.26655 | 33.67817 | 30149 ft | 481 kts | 45° |
| 2026-04-24 22:14 | 1.28994 | 33.70207 | 30293 ft | 482 kts | 45° |
| 2026-04-24 22:14 | 1.31338 | 33.72602 | 30424 ft | 482 kts | 45° |
| 2026-04-24 22:15 | 1.33688 | 33.75003 | 30557 ft | 483 kts | 45° |
| 2026-04-24 22:15 | 1.36039 | 33.77405 | 30701 ft | 483 kts | 45° |
| 2026-04-24 22:15 | 1.38387 | 33.79804 | 30889 ft | 482 kts | 45° |
| 2026-04-24 22:15 | 1.40731 | 33.82199 | 31092 ft | 481 kts | 45° |
| 2026-04-24 22:16 | 1.43068 | 33.84587 | 31292 ft | 481 kts | 45° |
| 2026-04-24 22:16 | 1.45406 | 33.86976 | 31466 ft | 481 kts | 45° |
| 2026-04-24 22:16 | 1.47743 | 33.89364 | 31641 ft | 480 kts | 45° |
| 2026-04-24 22:16 | 1.50076 | 33.91749 | 31843 ft | 480 kts | 45° |
| 2026-04-24 22:17 | 1.52408 | 33.94132 | 32042 ft | 479 kts | 45° |
| 2026-04-24 22:17 | 1.54738 | 33.96513 | 32229 ft | 479 kts | 45° |
| 2026-04-24 22:17 | 1.57068 | 33.98894 | 32411 ft | 479 kts | 45° |
| 2026-04-24 22:17 | 1.59397 | 34.01275 | 32595 ft | 479 kts | 45° |
| 2026-04-24 22:18 | 1.61722 | 34.03652 | 32800 ft | 478 kts | 45° |
| 2026-04-24 22:18 | 1.64048 | 34.06029 | 32985 ft | 478 kts | 45° |
| 2026-04-24 22:18 | 1.66374 | 34.08407 | 33165 ft | 478 kts | 45° |
| 2026-04-24 22:18 | 1.68699 | 34.10784 | 33347 ft | 479 kts | 45° |
| 2026-04-24 22:19 | 1.71029 | 34.13166 | 33527 ft | 479 kts | 45° |
| 2026-04-24 22:19 | 1.73357 | 34.15546 | 33720 ft | 479 kts | 45° |
| 2026-04-24 22:19 | 1.75681 | 34.17922 | 33898 ft | 479 kts | 45° |
| 2026-04-24 22:19 | 1.78009 | 34.20303 | 34062 ft | 479 kts | 45° |
| 2026-04-24 22:20 | 1.80339 | 34.22686 | 34255 ft | 478 kts | 45° |
| 2026-04-24 22:20 | 1.82656 | 34.25062 | 34437 ft | 478 kts | 46° |
| 2026-04-24 22:20 | 1.84899 | 34.27517 | 34615 ft | 478 kts | 48° |
| 2026-04-24 22:20 | 1.87071 | 34.30029 | 34807 ft | 477 kts | 49° |
| 2026-04-24 22:21 | 1.89212 | 34.32564 | 34927 ft | 478 kts | 49° |
| 2026-04-24 22:21 | 1.93499 | 34.37652 | 34931 ft | 477 kts | 49° |
| 2026-04-24 22:22 | 1.97787 | 34.42689 | 34941 ft | 474 kts | 49° |
| 2026-04-24 22:22 | 2.02072 | 34.47685 | 34944 ft | 473 kts | 48° |
| 2026-04-24 22:23 | 2.06350 | 34.52667 | 34947 ft | 471 kts | 48° |
| 2026-04-24 22:23 | 2.10608 | 34.57627 | 34948 ft | 470 kts | 48° |
| 2026-04-24 22:24 | 2.14863 | 34.62585 | 34948 ft | 469 kts | 48° |
| 2026-04-24 22:24 | 2.19109 | 34.67536 | 34950 ft | 469 kts | 48° |
| 2026-04-24 22:25 | 2.23360 | 34.72491 | 34949 ft | 469 kts | 48° |
| 2026-04-24 22:25 | 2.26894 | 34.76612 | 34946 ft | 470 kts | 48° |
| 2026-04-24 22:26 | 2.31149 | 34.81574 | 34943 ft | 470 kts | 48° |
| 2026-04-24 22:26 | 2.35409 | 34.86542 | 34938 ft | 471 kts | 48° |
| 2026-04-24 22:27 | 2.39672 | 34.91515 | 34930 ft | 472 kts | 48° |
| 2026-04-24 22:27 | 2.43948 | 34.96503 | 34919 ft | 473 kts | 48° |
| 2026-04-24 22:28 | 2.48478 | 35.01255 | 34906 ft | 472 kts | 43° |
| 2026-04-24 22:28 | 2.53245 | 35.05765 | 34891 ft | 472 kts | 42° |
| 2026-04-24 22:29 | 2.60384 | 35.12548 | 34882 ft | 472 kts | 43° |
| 2026-04-24 22:29 | 2.65072 | 35.17070 | 34870 ft | 471 kts | 43° |
| 2026-04-24 22:30 | 2.69785 | 35.21630 | 34859 ft | 471 kts | 43° |
| 2026-04-24 22:30 | 2.74493 | 35.26183 | 34854 ft | 471 kts | 43° |
| 2026-04-24 22:31 | 2.79206 | 35.30739 | 34854 ft | 471 kts | 43° |
| 2026-04-24 22:31 | 2.83917 | 35.35294 | 34849 ft | 471 kts | 43° |
| 2026-04-24 22:32 | 2.88621 | 35.39842 | 34844 ft | 471 kts | 43° |
| 2026-04-24 22:32 | 2.93330 | 35.44396 | 34838 ft | 471 kts | 43° |
| 2026-04-24 22:33 | 2.98033 | 35.48946 | 34835 ft | 471 kts | 43° |
| 2026-04-24 22:33 | 3.02740 | 35.53499 | 34830 ft | 471 kts | 43° |
| 2026-04-24 22:34 | 3.07448 | 35.58055 | 34832 ft | 471 kts | 42° |
| 2026-04-24 22:34 | 3.12445 | 35.62251 | 34843 ft | 468 kts | 30° |
| 2026-04-24 22:35 | 3.18179 | 35.65310 | 34831 ft | 467 kts | 26° |
| 2026-04-24 22:35 | 3.23955 | 35.68257 | 34830 ft | 466 kts | 26° |
| 2026-04-24 22:36 | 3.29712 | 35.71241 | 34830 ft | 465 kts | 26° |
| 2026-04-24 22:36 | 3.35442 | 35.74247 | 34830 ft | 465 kts | 26° |
| 2026-04-24 22:37 | 3.41167 | 35.77262 | 34829 ft | 465 kts | 26° |
| 2026-04-24 22:37 | 3.46886 | 35.80273 | 34829 ft | 464 kts | 26° |
| 2026-04-24 22:38 | 3.52602 | 35.83281 | 34828 ft | 464 kts | 26° |
| 2026-04-24 22:38 | 3.58281 | 35.86270 | 34827 ft | 464 kts | 26° |
| 2026-04-24 22:39 | 3.63986 | 35.89272 | 34825 ft | 463 kts | 26° |
| 2026-04-24 22:39 | 3.69692 | 35.92276 | 34823 ft | 463 kts | 26° |
| 2026-04-24 22:40 | 3.75402 | 35.95283 | 34824 ft | 463 kts | 26° |
| 2026-04-24 22:40 | 3.81105 | 35.98285 | 34830 ft | 463 kts | 26° |
| 2026-04-24 22:41 | 3.86818 | 36.01294 | 34830 ft | 464 kts | 26° |
| 2026-04-24 22:41 | 3.92529 | 36.04304 | 34829 ft | 464 kts | 26° |
| 2026-04-24 22:42 | 3.98245 | 36.07316 | 34829 ft | 465 kts | 26° |
| 2026-04-24 22:42 | 4.03975 | 36.10332 | 34828 ft | 465 kts | 26° |
| 2026-04-24 22:43 | 4.09711 | 36.13348 | 34829 ft | 466 kts | 26° |
| 2026-04-24 22:43 | 4.15456 | 36.16369 | 34831 ft | 466 kts | 26° |
| 2026-04-24 22:44 | 4.21202 | 36.19393 | 34832 ft | 467 kts | 26° |
| 2026-04-24 22:44 | 4.26950 | 36.22418 | 34833 ft | 466 kts | 26° |
| 2026-04-24 22:45 | 4.32688 | 36.25439 | 34835 ft | 466 kts | 26° |
| 2026-04-24 22:45 | 4.38428 | 36.28462 | 34835 ft | 465 kts | 26° |
| 2026-04-24 22:46 | 4.44119 | 36.31459 | 34841 ft | 465 kts | 26° |
| 2026-04-24 22:46 | 4.49834 | 36.34470 | 34844 ft | 464 kts | 26° |
| 2026-04-24 22:47 | 4.55542 | 36.37477 | 34846 ft | 463 kts | 26° |
| 2026-04-24 22:47 | 4.61241 | 36.40480 | 34851 ft | 462 kts | 26° |
| 2026-04-24 22:48 | 4.66969 | 36.43499 | 34853 ft | 462 kts | 26° |
| 2026-04-24 22:48 | 4.72610 | 36.46473 | 34858 ft | 461 kts | 26° |
| 2026-04-24 22:49 | 4.78283 | 36.49464 | 34867 ft | 460 kts | 26° |
| 2026-04-24 22:49 | 4.83948 | 36.52451 | 34866 ft | 460 kts | 26° |
| 2026-04-24 22:50 | 4.89607 | 36.55436 | 34872 ft | 460 kts | 27° |
| 2026-04-24 22:50 | 4.95266 | 36.58421 | 34882 ft | 459 kts | 27° |
| 2026-04-24 22:51 | 5.00921 | 36.61405 | 34886 ft | 459 kts | 27° |
| 2026-04-24 22:51 | 5.06581 | 36.64392 | 34888 ft | 460 kts | 27° |
| 2026-04-24 22:52 | 5.12240 | 36.67379 | 34896 ft | 460 kts | 27° |
| 2026-04-24 22:52 | 5.17908 | 36.70371 | 34896 ft | 461 kts | 27° |
| 2026-04-24 22:53 | 5.23580 | 36.73367 | 34901 ft | 461 kts | 27° |
| 2026-04-24 22:53 | 5.29266 | 36.76370 | 34905 ft | 462 kts | 27° |
| 2026-04-24 22:54 | 5.34967 | 36.79381 | 34906 ft | 463 kts | 27° |
| 2026-04-24 22:54 | 5.40676 | 36.82398 | 34912 ft | 464 kts | 27° |
| 2026-04-24 22:55 | 5.46392 | 36.85419 | 34915 ft | 465 kts | 27° |
| 2026-04-24 22:55 | 5.52111 | 36.88443 | 34918 ft | 465 kts | 27° |
| 2026-04-24 22:56 | 5.57836 | 36.91470 | 34920 ft | 465 kts | 27° |
| 2026-04-24 22:56 | 5.63517 | 36.94474 | 34926 ft | 465 kts | 27° |
| 2026-04-24 22:57 | 5.69237 | 36.97500 | 34931 ft | 464 kts | 27° |
| 2026-04-24 22:57 | 5.74952 | 37.00523 | 34943 ft | 464 kts | 27° |
| 2026-04-24 22:58 | 5.80661 | 37.03545 | 34949 ft | 464 kts | 27° |
| 2026-04-24 22:58 | 5.86371 | 37.06568 | 34948 ft | 464 kts | 26° |
| 2026-04-24 22:59 | 5.92071 | 37.09586 | 34957 ft | 463 kts | 26° |
| 2026-04-24 23:00 | 6.00621 | 37.14114 | 34959 ft | 463 kts | 26° |
| 2026-04-24 23:00 | 6.06314 | 37.17130 | 34967 ft | 462 kts | 26° |
| 2026-04-24 23:01 | 6.12003 | 37.20145 | 34965 ft | 462 kts | 26° |
| 2026-04-24 23:01 | 6.17685 | 37.23152 | 34965 ft | 461 kts | 26° |
| 2026-04-24 23:02 | 6.23356 | 37.26158 | 34963 ft | 461 kts | 26° |
| 2026-04-24 23:02 | 6.28981 | 37.29143 | 34964 ft | 460 kts | 26° |
| 2026-04-24 23:03 | 6.34640 | 37.32147 | 34965 ft | 459 kts | 26° |
| 2026-04-24 23:03 | 6.40289 | 37.35144 | 34959 ft | 458 kts | 26° |
| 2026-04-24 23:04 | 6.45920 | 37.38130 | 34967 ft | 458 kts | 26° |
| 2026-04-24 23:04 | 6.51557 | 37.41120 | 34954 ft | 458 kts | 26° |
| 2026-04-24 23:05 | 6.57198 | 37.44117 | 34962 ft | 458 kts | 26° |
| 2026-04-24 23:05 | 6.62832 | 37.47111 | 34969 ft | 458 kts | 26° |
| 2026-04-24 23:06 | 6.68469 | 37.50107 | 34970 ft | 458 kts | 27° |
| 2026-04-24 23:06 | 6.74114 | 37.53106 | 34973 ft | 459 kts | 27° |
| 2026-04-24 23:07 | 6.79767 | 37.56111 | 34982 ft | 460 kts | 27° |
| 2026-04-24 23:07 | 6.85436 | 37.59125 | 34991 ft | 461 kts | 27° |
| 2026-04-24 23:08 | 6.91119 | 37.62147 | 34998 ft | 463 kts | 27° |
| 2026-04-24 23:08 | 6.96814 | 37.65176 | 35003 ft | 463 kts | 27° |
| 2026-04-24 23:09 | 7.02519 | 37.68212 | 35018 ft | 464 kts | 27° |
| 2026-04-24 23:09 | 7.08225 | 37.71249 | 35020 ft | 464 kts | 27° |
| 2026-04-24 23:10 | 7.13929 | 37.74286 | 35031 ft | 464 kts | 27° |
| 2026-04-24 23:10 | 7.19640 | 37.77327 | 35040 ft | 464 kts | 27° |
| 2026-04-24 23:11 | 7.25313 | 37.80349 | 35051 ft | 464 kts | 27° |
| 2026-04-24 23:11 | 7.31021 | 37.83391 | 35059 ft | 464 kts | 27° |
| 2026-04-24 23:12 | 7.36736 | 37.86437 | 35063 ft | 465 kts | 27° |
| 2026-04-24 23:12 | 7.42455 | 37.89486 | 35075 ft | 465 kts | 27° |
| 2026-04-24 23:13 | 7.48180 | 37.92540 | 35080 ft | 466 kts | 27° |
| 2026-04-24 23:13 | 7.53909 | 37.95596 | 35087 ft | 466 kts | 27° |
| 2026-04-24 23:14 | 7.59639 | 37.98654 | 35099 ft | 466 kts | 27° |
| 2026-04-24 23:14 | 7.65376 | 38.01716 | 35098 ft | 467 kts | 27° |
| 2026-04-24 23:15 | 7.71122 | 38.04785 | 35111 ft | 468 kts | 27° |
| 2026-04-24 23:15 | 7.76878 | 38.07859 | 35113 ft | 468 kts | 27° |
| 2026-04-24 23:16 | 7.81663 | 38.10417 | 35118 ft | 468 kts | 27° |
| 2026-04-24 23:16 | 7.87425 | 38.13496 | 35125 ft | 469 kts | 27° |
| 2026-04-24 23:17 | 7.93196 | 38.16581 | 34737 ft | 476 kts | 26° |
| 2026-04-24 23:17 | 7.96135 | 38.18152 | 34068 ft | 476 kts | 26° |
| 2026-04-24 23:17 | 7.99038 | 38.19706 | 33550 ft | 470 kts | 27° |
| 2026-04-24 23:17 | 8.01906 | 38.21241 | 33144 ft | 462 kts | 27° |
| 2026-04-24 23:18 | 8.04726 | 38.22751 | 32774 ft | 455 kts | 27° |
| 2026-04-24 23:18 | 8.07506 | 38.24239 | 32312 ft | 451 kts | 27° |
| 2026-04-24 23:18 | 8.10270 | 38.25718 | 31727 ft | 449 kts | 27° |
| 2026-04-24 23:18 | 8.13041 | 38.27200 | 31003 ft | 452 kts | 27° |
| 2026-04-24 23:19 | 8.15841 | 38.28669 | 30212 ft | 456 kts | 23° |
| 2026-04-24 23:19 | 8.18847 | 38.29706 | 29317 ft | 457 kts | 17° |
| 2026-04-24 23:19 | 8.21854 | 38.30775 | 28450 ft | 459 kts | 20° |
| 2026-04-24 23:19 | 8.24826 | 38.31982 | 27547 ft | 462 kts | 22° |
| 2026-04-24 23:20 | 8.27804 | 38.33239 | 26607 ft | 465 kts | 22° |
| 2026-04-24 23:20 | 8.30806 | 38.34504 | 25638 ft | 469 kts | 23° |
| 2026-04-24 23:20 | 8.33837 | 38.35760 | 24684 ft | 473 kts | 23° |
| 2026-04-24 23:20 | 8.36886 | 38.37002 | 23925 ft | 472 kts | 23° |
| 2026-04-24 23:21 | 8.39923 | 38.38227 | 23281 ft | 466 kts | 22° |
| 2026-04-24 23:21 | 8.42874 | 38.39413 | 22671 ft | 459 kts | 23° |
| 2026-04-24 23:21 | 8.45859 | 38.40614 | 21995 ft | 453 kts | 23° |
| 2026-04-24 23:21 | 8.48774 | 38.41788 | 21341 ft | 448 kts | 23° |
| 2026-04-24 23:22 | 8.51648 | 38.42946 | 20833 ft | 440 kts | 23° |
| 2026-04-24 23:22 | 8.54405 | 38.44057 | 20709 ft | 423 kts | 23° |
| 2026-04-24 23:22 | 8.57123 | 38.45152 | 20611 ft | 407 kts | 23° |
| 2026-04-24 23:22 | 8.59703 | 38.46195 | 20525 ft | 392 kts | 23° |
| 2026-04-24 23:23 | 8.62156 | 38.47187 | 20449 ft | 378 kts | 23° |
| 2026-04-24 23:23 | 8.64554 | 38.48155 | 20376 ft | 365 kts | 23° |
| 2026-04-24 23:23 | 8.66894 | 38.49099 | 20280 ft | 348 kts | 23° |
| 2026-04-24 23:23 | 8.69064 | 38.49943 | 20175 ft | 331 kts | 17° |
| 2026-04-24 23:24 | 8.71293 | 38.50065 | 20049 ft | 317 kts | 347° |
| 2026-04-24 23:24 | 8.73242 | 38.49144 | 19737 ft | 311 kts | 320° |
| 2026-04-24 23:24 | 8.74585 | 38.47406 | 19243 ft | 311 kts | 298° |
| 2026-04-24 23:24 | 8.75527 | 38.45471 | 18772 ft | 312 kts | 295° |
| 2026-04-24 23:25 | 8.76525 | 38.43521 | 18166 ft | 313 kts | 310° |
| 2026-04-24 23:25 | 8.78218 | 38.42183 | 17537 ft | 311 kts | 340° |
| 2026-04-24 23:25 | 8.80323 | 38.41867 | 16923 ft | 308 kts | 9° |
| 2026-04-24 23:25 | 8.82387 | 38.42405 | 16363 ft | 306 kts | 20° |
| 2026-04-24 23:26 | 8.84392 | 38.43142 | 15772 ft | 308 kts | 22° |
| 2026-04-24 23:26 | 8.86218 | 38.44227 | 15148 ft | 307 kts | 47° |
| 2026-04-24 23:26 | 8.87257 | 38.46068 | 14588 ft | 306 kts | 76° |
| 2026-04-24 23:26 | 8.87694 | 38.48170 | 14073 ft | 304 kts | 76° |
| 2026-04-24 23:27 | 8.88187 | 38.50253 | 13460 ft | 305 kts | 75° |
| 2026-04-24 23:27 | 8.88720 | 38.52322 | 12939 ft | 301 kts | 74° |
| 2026-04-24 23:27 | 8.89253 | 38.54312 | 12701 ft | 286 kts | 74° |
| 2026-04-24 23:27 | 8.89771 | 38.56209 | 12519 ft | 274 kts | 73° |
| 2026-04-24 23:28 | 8.90271 | 38.58023 | 12351 ft | 262 kts | 73° |
| 2026-04-24 23:28 | 8.90752 | 38.59761 | 12180 ft | 251 kts | 73° |
| 2026-04-24 23:28 | 8.91204 | 38.61390 | 12101 ft | 229 kts | 73° |
| 2026-04-24 23:28 | 8.91615 | 38.62871 | 11999 ft | 210 kts | 73° |
| 2026-04-24 23:29 | 8.91992 | 38.64229 | 11887 ft | 191 kts | 73° |
| 2026-04-24 23:29 | 8.92336 | 38.65470 | 11708 ft | 177 kts | 73° |
| 2026-04-24 23:29 | 8.92663 | 38.66645 | 11335 ft | 175 kts | 73° |
| 2026-04-24 23:29 | 8.93158 | 38.67787 | 10767 ft | 182 kts | 60° |
| 2026-04-24 23:30 | 8.93801 | 38.68914 | 10192 ft | 188 kts | 59° |
| 2026-04-24 23:30 | 8.94439 | 38.70023 | 9956 ft | 172 kts | 59° |
| 2026-04-24 23:30 | 8.95001 | 38.71010 | 9797 ft | 153 kts | 59° |
| 2026-04-24 23:30 | 8.95522 | 38.71922 | 9420 ft | 149 kts | 60° |
| 2026-04-24 23:31 | 8.95854 | 38.72911 | 8984 ft | 148 kts | 75° |
| 2026-04-24 23:31 | 8.96136 | 38.73925 | 8615 ft | 159 kts | 73° |
| 2026-04-24 23:31 | 8.96452 | 38.75052 | 8674 ft | 171 kts | 74° |
| 2026-04-24 23:31 | 8.96786 | 38.76183 | 8470 ft | 164 kts | 72° |
| 2026-04-24 23:32 | 8.97105 | 38.77276 | 8045 ft | 160 kts | 72° |
| 2026-04-24 23:32 | 8.97422 | 38.78320 | 7662 ft | 151 kts | 73° |
| 2026-04-24 23:32 | 8.97679 | 38.79201 | 7618 ft | 101 kts | 70° |
| 2026-04-24 23:32 | 8.97801 | 38.79596 | 7619 ft | 40 kts | 75° |
| 2026-04-24 23:33 | 8.97852 | 38.79790 | 7620 ft | 14 kts | 73° |
| 2026-04-24 23:33 | 8.97926 | 38.79817 | 7621 ft | 12 kts | 344° |
| 2026-04-24 23:33 | 8.98000 | 38.79797 | 7620 ft | 9 kts | 344° |
| 2026-04-24 23:33 | 8.98059 | 38.79780 | 7620 ft | 8 kts | 345° |
| 2026-04-24 23:34 | 8.98095 | 38.79770 | 7620 ft | 4 kts | 345° |
| 2026-04-24 23:34 | 8.98122 | 38.79763 | 7620 ft | 4 kts | 345° |
| 2026-04-24 23:34 | 8.98148 | 38.79756 | 7620 ft | 4 kts | 352° |
| 2026-04-24 23:34 | 8.98174 | 38.79751 | 7620 ft | 4 kts | 345° |
| 2026-04-24 23:35 | 8.98198 | 38.79744 | 7620 ft | 4 kts | 343° |
| 2026-04-24 23:35 | 8.98222 | 38.79736 | 7620 ft | 4 kts | 341° |
| 2026-04-24 23:35 | 8.98245 | 38.79728 | 7620 ft | 3 kts | 341° |
| 2026-04-24 23:35 | 8.98261 | 38.79723 | 7620 ft | 0 kts | 341° |